Time;durP1;ratioP1;P1;durP2;ratioP2;P2;SDS_P1;SDS_P2;PMS_P1;PMS_P2;Temp;Humidity;BMP_temperature;BMP_pressure;BME280_temperature;BME280_humidity;BME280_pressure;Samples;Min_cycle;Max_cycle;Signal;HPM_P1;HPM_P2
2022/02/15 00:01:13;;;;;;;14.87;12.00;;;8.50;99.90;;;;;;5058632;28;20444;-85
2022/02/15 00:03:59;;;;;;;11.97;10.30;;;8.40;99.90;;;;;;5045164;28;20618;-85
2022/02/15 00:06:46;;;;;;;14.40;11.20;;;8.40;99.90;;;;;;5053034;28;20435;-84
2022/02/15 00:09:32;;;;;;;13.83;10.80;;;8.40;99.90;;;;;;5055049;28;20508;-85
2022/02/15 00:12:18;;;;;;;14.00;10.30;;;8.30;99.90;;;;;;5052240;28;20594;-85
2022/02/15 00:15:04;;;;;;;16.40;11.47;;;8.30;99.90;;;;;;5049983;28;20946;-85
2022/02/15 00:17:50;;;;;;;12.57;10.00;;;8.30;99.90;;;;;;5054711;28;20455;-85
2022/02/15 00:20:36;;;;;;;15.03;10.77;;;8.20;99.90;;;;;;5051544;28;20517;-85
2022/02/15 00:23:23;;;;;;;11.70;9.50;;;8.10;99.90;;;;;;5045869;28;20609;-85
2022/02/15 00:26:09;;;;;;;11.57;9.90;;;8.10;99.90;;;;;;5051635;28;20504;-85
2022/02/15 00:28:56;;;;;;;13.83;10.30;;;8.00;99.90;;;;;;5053056;28;20819;-85
2022/02/15 00:31:42;;;;;;;14.20;9.87;;;7.90;99.90;;;;;;5049563;28;20534;-85
2022/02/15 00:34:28;;;;;;;11.50;9.20;;;7.80;99.90;;;;;;5048442;28;21270;-85
2022/02/15 00:37:13;;;;;;;12.40;9.50;;;7.70;99.90;;;;;;5051168;28;20450;-85
2022/02/15 00:40:00;;;;;;;14.93;9.33;;;7.60;99.90;;;;;;5047209;28;20521;-85
2022/02/15 00:42:47;;;;;;;11.90;9.77;;;7.60;99.90;;;;;;5050538;28;20993;-84
2022/02/15 00:45:33;;;;;;;12.10;10.53;;;7.50;99.90;;;;;;5043888;28;20529;-84
2022/02/15 00:48:19;;;;;;;11.77;9.97;;;7.50;99.90;;;;;;5047434;28;20843;-83
2022/02/15 00:51:04;;;;;;;10.73;9.20;;;7.50;99.90;;;;;;5052391;28;20556;-84
2022/02/15 00:53:50;;;;;;;18.67;9.03;;;7.40;99.90;;;;;;5049374;28;20581;-84
2022/02/15 00:56:37;;;;;;;11.07;9.90;;;7.40;99.90;;;;;;5053702;28;20963;-84
2022/02/15 00:59:23;;;;;;;11.00;9.30;;;7.30;99.90;;;;;;5050707;28;20484;-83
2022/02/15 01:02:09;;;;;;;11.77;7.93;;;7.30;99.90;;;;;;5045276;28;20461;-83
2022/02/15 01:04:55;;;;;;;14.13;9.60;;;7.30;99.90;;;;;;5055405;28;20448;-84
2022/02/15 01:07:41;;;;;;;11.93;8.70;;;7.30;99.90;;;;;;5062064;28;20435;-83
2022/02/15 01:10:27;;;;;;;11.87;8.40;;;7.30;99.90;;;;;;5044573;28;20451;-84
2022/02/15 01:13:14;;;;;;;11.07;8.33;;;7.20;99.90;;;;;;5045376;28;20998;-84
2022/02/15 01:15:59;;;;;;;10.70;8.87;;;7.20;99.90;;;;;;5051874;28;20532;-83
2022/02/15 01:18:45;;;;;;;11.27;8.90;;;7.20;99.90;;;;;;5048196;28;20529;-84
2022/02/15 01:21:30;;;;;;;13.30;8.07;;;7.30;99.90;;;;;;5047849;28;20823;-84
2022/02/15 01:24:16;;;;;;;10.50;7.40;;;7.30;99.90;;;;;;5049734;28;20488;-84
2022/02/15 01:27:01;;;;;;;9.07;7.83;;;7.40;99.90;;;;;;5049737;28;20500;-83
2022/02/15 01:29:49;;;;;;;9.97;7.23;;;7.40;99.90;;;;;;5046949;28;20449;-83
2022/02/15 01:32:34;;;;;;;10.17;7.73;;;7.50;99.90;;;;;;5046500;28;20984;-83
2022/02/15 01:35:20;;;;;;;8.90;7.60;;;7.50;99.90;;;;;;5044558;28;20819;-84
2022/02/15 01:38:06;;;;;;;11.47;7.23;;;7.70;99.90;;;;;;5048882;28;21057;-83
2022/02/15 01:40:51;;;;;;;10.03;7.30;;;7.70;99.90;;;;;;5048473;28;20513;-83
2022/02/15 01:43:39;;;;;;;13.20;7.77;;;7.70;99.90;;;;;;5043594;28;20429;-84
2022/02/15 01:46:27;;;;;;;9.13;7.20;;;7.60;99.90;;;;;;5050871;28;20447;-84
2022/02/15 01:49:12;;;;;;;8.77;6.83;;;7.60;99.90;;;;;;5045264;28;20509;-83
2022/02/15 01:51:58;;;;;;;12.80;6.73;;;7.60;99.90;;;;;;5046023;28;20460;-84
2022/02/15 01:54:43;;;;;;;8.23;6.70;;;7.60;99.90;;;;;;5048143;28;20475;-83
2022/02/15 01:57:29;;;;;;;9.90;6.93;;;7.60;99.90;;;;;;5047690;28;20515;-83
2022/02/15 02:00:18;;;;;;;9.03;6.73;;;7.60;99.90;;;;;;5047853;28;20443;-83
2022/02/15 02:03:05;;;;;;;11.23;6.93;;;7.50;99.90;;;;;;5049546;28;20593;-83
2022/02/15 02:05:50;;;;;;;10.00;5.63;;;7.40;99.90;;;;;;5045775;28;20685;-84
2022/02/15 02:08:36;;;;;;;11.07;6.20;;;7.40;99.90;;;;;;5044801;28;20497;-83
2022/02/15 02:11:21;;;;;;;7.40;6.50;;;7.30;99.90;;;;;;5042890;28;20438;-83
2022/02/15 02:14:07;;;;;;;8.60;6.30;;;7.20;99.90;;;;;;5050295;28;20466;-83
2022/02/15 02:16:52;;;;;;;7.73;6.90;;;7.30;99.90;;;;;;5047979;28;20803;-84
2022/02/15 02:19:39;;;;;;;8.70;6.40;;;7.20;99.90;;;;;;5046477;28;20451;-84
2022/02/15 02:22:29;;;;;;;9.07;5.73;;;7.20;99.90;;;;;;5040064;28;20555;-83
2022/02/15 02:25:17;;;;;;;10.40;6.13;;;7.20;99.90;;;;;;5044633;28;20410;-82
2022/02/15 02:28:04;;;;;;;7.33;5.40;;;7.30;99.90;;;;;;5043939;28;20451;-84
2022/02/15 02:30:50;;;;;;;9.53;6.50;;;7.30;99.90;;;;;;5051806;28;20481;-83
2022/02/15 02:33:36;;;;;;;9.63;5.50;;;7.30;99.90;;;;;;5044962;28;20547;-84
2022/02/15 02:36:21;;;;;;;8.53;5.10;;;7.30;99.90;;;;;;5046370;28;20437;-84
2022/02/15 02:39:08;;;;;;;7.70;6.10;;;7.30;99.90;;;;;;5046779;28;20465;-85
2022/02/15 02:41:54;;;;;;;9.17;4.73;;;7.40;99.90;;;;;;5045829;28;20569;-84
2022/02/15 02:44:40;;;;;;;13.30;5.60;;;7.40;99.90;;;;;;5047087;28;20890;-82
2022/02/15 02:47:26;;;;;;;7.97;5.17;;;7.50;99.90;;;;;;5045936;28;20455;-83
2022/02/15 02:50:12;;;;;;;5.50;4.20;;;7.50;99.90;;;;;;5043191;28;20442;-83
2022/02/15 02:55:30;;;;;;;10.30;4.53;;;7.70;99.90;;;;;;5084507;28;20485;-72
2022/02/15 02:58:15;;;;;;;4.40;3.77;;;7.60;99.90;;;;;;5087748;28;20545;-72
2022/02/15 03:01:01;;;;;;;6.03;3.50;;;7.70;99.90;;;;;;5076301;28;20468;-72
2022/02/15 03:03:47;;;;;;;5.50;3.70;;;7.80;99.90;;;;;;5068192;28;21419;-73
2022/02/15 03:06:33;;;;;;;6.63;4.50;;;7.80;99.90;;;;;;5068674;28;20960;-73
2022/02/15 03:09:18;;;;;;;4.90;3.77;;;7.80;99.90;;;;;;5066792;28;20917;-73
2022/02/15 03:12:06;;;;;;;8.93;3.43;;;7.90;99.90;;;;;;5069828;28;20463;-73
2022/02/15 03:14:52;;;;;;;9.90;3.30;;;8.00;99.90;;;;;;5064343;28;20444;-73
2022/02/15 03:17:38;;;;;;;7.40;3.67;;;8.00;99.90;;;;;;5064556;28;20452;-73
2022/02/15 03:20:23;;;;;;;6.80;3.80;;;8.10;99.90;;;;;;5062595;28;20457;-73
2022/02/15 03:23:10;;;;;;;7.73;3.43;;;8.10;99.90;;;;;;5065132;28;20857;-73
2022/02/15 03:25:55;;;;;;;8.10;3.17;;;8.10;99.90;;;;;;5067340;28;20441;-73
2022/02/15 03:28:42;;;;;;;13.40;3.70;;;8.20;99.90;;;;;;5063130;28;20439;-73
2022/02/15 03:31:27;;;;;;;3.53;2.77;;;8.10;99.90;;;;;;5062213;28;21534;-72
2022/02/15 03:34:13;;;;;;;4.00;2.70;;;8.10;99.90;;;;;;5070985;28;20489;-73
2022/02/15 03:36:59;;;;;;;4.13;2.43;;;8.10;99.90;;;;;;5065459;28;20436;-73
2022/02/15 03:39:45;;;;;;;3.70;2.43;;;8.20;99.90;;;;;;5065598;28;20490;-72
2022/02/15 03:45:36;;;;;;;3.77;2.90;;;8.20;99.90;;;;;;5066238;28;20887;-73
2022/02/15 03:48:21;;;;;;;5.97;2.60;;;8.20;99.90;;;;;;5064195;28;20440;-73
2022/02/15 03:51:07;;;;;;;15.90;3.80;;;8.10;99.90;;;;;;5062385;28;20923;-72
2022/02/15 03:53:53;;;;;;;4.80;3.23;;;8.10;99.90;;;;;;5067457;28;20477;-73
2022/02/15 03:56:39;;;;;;;5.83;3.00;;;8.00;99.90;;;;;;5066990;28;21017;-74
2022/02/15 03:59:25;;;;;;;4.50;3.47;;;8.10;99.90;;;;;;5064263;28;20465;-73
2022/02/15 04:02:12;;;;;;;6.97;3.53;;;8.00;99.90;;;;;;5065626;28;21325;-73
2022/02/15 04:04:58;;;;;;;9.67;3.37;;;8.00;99.90;;;;;;5073192;28;20579;-73
2022/02/15 04:07:44;;;;;;;6.20;3.67;;;8.00;99.90;;;;;;5076033;28;20685;-73
2022/02/15 04:10:29;;;;;;;6.30;3.37;;;8.00;99.90;;;;;;5070459;28;20467;-72
2022/02/15 04:13:15;;;;;;;7.07;3.50;;;8.10;99.90;;;;;;5066819;28;21129;-73
2022/02/15 04:16:01;;;;;;;6.40;4.10;;;8.10;99.90;;;;;;5072822;28;20501;-73
2022/02/15 04:18:48;;;;;;;6.30;3.93;;;8.10;99.90;;;;;;5069778;28;20925;-73
2022/02/15 04:21:34;;;;;;;6.73;3.80;;;8.20;99.90;;;;;;5066739;28;20473;-72
2022/02/15 04:24:19;;;;;;;7.00;3.93;;;8.10;99.90;;;;;;5067352;28;20909;-73
2022/02/15 04:27:05;;;;;;;6.13;3.90;;;8.10;99.90;;;;;;5071347;28;20430;-73
2022/02/15 04:29:51;;;;;;;5.17;3.50;;;8.20;99.90;;;;;;5065891;28;20429;-73
2022/02/15 04:32:37;;;;;;;5.60;3.50;;;8.20;99.90;;;;;;5069419;28;20917;-73
2022/02/15 04:35:24;;;;;;;7.53;3.90;;;8.20;99.90;;;;;;5070298;28;20619;-73
2022/02/15 04:38:09;;;;;;;8.40;2.93;;;8.20;99.90;;;;;;5066064;28;20771;-73
2022/02/15 04:40:55;;;;;;;5.97;3.17;;;8.20;99.90;;;;;;5069672;28;20473;-73
2022/02/15 04:43:41;;;;;;;6.23;2.97;;;8.20;99.90;;;;;;5069945;28;20976;-73
2022/02/15 04:46:26;;;;;;;7.53;3.50;;;8.30;99.90;;;;;;5068112;28;20453;-72
2022/02/15 04:49:12;;;;;;;5.63;2.97;;;8.30;99.90;;;;;;5064225;28;20449;-72
2022/02/15 04:52:00;;;;;;;6.23;3.23;;;8.30;99.90;;;;;;5073564;28;20469;-72
2022/02/15 04:54:45;;;;;;;5.60;2.90;;;8.20;99.90;;;;;;5069979;28;20589;-72
2022/02/15 04:57:30;;;;;;;6.17;3.30;;;8.20;99.90;;;;;;5067205;28;20446;-72
2022/02/15 05:00:17;;;;;;;7.13;3.60;;;8.20;99.90;;;;;;5071128;28;20444;-73
2022/02/15 05:03:02;;;;;;;11.23;3.37;;;8.30;99.90;;;;;;5062120;28;20457;-73
2022/02/15 05:05:48;;;;;;;5.60;2.63;;;8.30;99.90;;;;;;5064688;28;20535;-73
2022/02/15 05:08:35;;;;;;;4.90;2.80;;;8.20;99.90;;;;;;5064118;28;20965;-73
2022/02/15 05:11:20;;;;;;;3.33;2.80;;;8.30;99.90;;;;;;5069150;28;20463;-73
2022/02/15 05:14:06;;;;;;;4.50;3.17;;;8.20;99.90;;;;;;5066601;28;20412;-72
2022/02/15 05:16:51;;;;;;;5.90;3.17;;;8.30;99.90;;;;;;5072079;28;21018;-72
2022/02/15 05:19:39;;;;;;;6.50;2.93;;;8.20;99.90;;;;;;5064072;28;20438;-72
2022/02/15 05:22:25;;;;;;;4.23;3.17;;;8.30;99.90;;;;;;5068144;28;20497;-73
2022/02/15 05:25:13;;;;;;;5.80;3.70;;;8.30;99.90;;;;;;5067574;28;20819;-73
2022/02/15 05:27:59;;;;;;;4.23;2.70;;;8.30;99.90;;;;;;5064605;28;20446;-73
2022/02/15 05:30:45;;;;;;;6.40;3.20;;;8.30;99.90;;;;;;5062203;28;21247;-74
2022/02/15 05:33:31;;;;;;;4.63;3.50;;;8.30;99.90;;;;;;5070818;28;20441;-73
2022/02/15 05:36:16;;;;;;;4.27;3.50;;;8.30;99.90;;;;;;5062408;28;20442;-73
2022/02/15 05:39:02;;;;;;;7.70;3.57;;;8.30;99.90;;;;;;5067037;28;20531;-73
2022/02/15 05:41:49;;;;;;;4.57;3.27;;;8.30;99.90;;;;;;5072662;28;20481;-73
2022/02/15 05:44:35;;;;;;;8.43;4.40;;;8.30;99.90;;;;;;5065826;28;20426;-73
2022/02/15 05:47:21;;;;;;;7.43;3.27;;;8.30;99.90;;;;;;5068998;28;20446;-72
2022/02/15 05:53:10;;;;;;;4.80;3.40;;;8.20;99.90;;;;;;5067895;28;20430;-72
2022/02/15 05:55:59;;;;;;;6.53;3.80;;;8.20;99.90;;;;;;5066307;28;20432;-73
2022/02/15 05:58:46;;;;;;;9.50;3.50;;;8.20;99.90;;;;;;5067471;28;20556;-72
2022/02/15 06:01:31;;;;;;;8.83;4.77;;;8.10;99.90;;;;;;5069513;28;20466;-72
2022/02/15 06:04:17;;;;;;;7.00;4.17;;;8.10;99.90;;;;;;5068703;28;20468;-72
2022/02/15 06:07:04;;;;;;;5.70;3.47;;;8.10;99.90;;;;;;5066099;28;20519;-73
2022/02/15 06:09:50;;;;;;;6.40;4.07;;;8.10;99.90;;;;;;5066786;28;20446;-73
2022/02/15 06:12:36;;;;;;;5.27;3.40;;;8.10;99.90;;;;;;5065826;28;20486;-72
2022/02/15 06:15:23;;;;;;;6.50;3.87;;;8.10;99.90;;;;;;5066918;28;20445;-72
2022/02/15 06:18:09;;;;;;;6.63;3.90;;;8.20;99.90;;;;;;5063794;28;20464;-73
2022/02/15 06:20:54;;;;;;;5.83;3.90;;;8.20;99.90;;;;;;5069178;28;20468;-73
2022/02/15 06:23:40;;;;;;;6.57;4.13;;;8.10;99.90;;;;;;5066691;28;20465;-73
2022/02/15 06:26:25;;;;;;;5.47;3.63;;;8.10;99.90;;;;;;5063002;28;20466;-72
2022/02/15 06:29:12;;;;;;;7.60;4.10;;;8.20;99.90;;;;;;5063449;28;20518;-73
2022/02/15 06:31:59;;;;;;;7.60;3.60;;;8.10;99.90;;;;;;5068360;28;20472;-73
2022/02/15 06:34:44;;;;;;;9.60;4.10;;;8.20;99.90;;;;;;5065047;28;20492;-73
2022/02/15 06:37:30;;;;;;;7.60;4.00;;;8.20;99.90;;;;;;5064174;28;20440;-73
2022/02/15 06:40:17;;;;;;;6.70;4.50;;;8.20;99.90;;;;;;5064630;28;20930;-73
2022/02/15 06:43:04;;;;;;;5.73;3.90;;;8.20;99.90;;;;;;5064847;28;20831;-72
2022/02/15 06:45:49;;;;;;;8.90;3.90;;;8.30;99.90;;;;;;5068651;28;21245;-73
2022/02/15 06:48:36;;;;;;;6.87;4.63;;;8.20;99.90;;;;;;5066050;28;20431;-73
2022/02/15 06:51:22;;;;;;;7.07;4.10;;;8.30;99.90;;;;;;5064650;28;20592;-73
2022/02/15 06:54:08;;;;;;;6.70;4.43;;;8.30;99.90;;;;;;5066173;28;20816;-73
2022/02/15 06:56:53;;;;;;;7.00;5.50;;;8.30;99.90;;;;;;5067771;28;20440;-73
2022/02/15 06:59:39;;;;;;;15.50;8.90;;;8.30;99.90;;;;;;5060351;28;20521;-73
2022/02/15 07:02:25;;;;;;;6.50;4.37;;;8.30;99.90;;;;;;5064332;28;20548;-73
2022/02/15 07:05:12;;;;;;;8.13;6.47;;;8.30;99.90;;;;;;5064075;28;20441;-73
2022/02/15 07:07:58;;;;;;;13.10;10.30;;;8.30;99.90;;;;;;5064860;28;20444;-73
2022/02/15 07:10:44;;;;;;;8.53;5.80;;;8.30;99.90;;;;;;5067223;28;20469;-73
2022/02/15 07:13:29;;;;;;;6.87;5.00;;;8.30;99.90;;;;;;5067918;28;20450;-73
2022/02/15 07:16:15;;;;;;;10.03;5.33;;;8.30;99.90;;;;;;5070040;28;20442;-72
2022/02/15 07:19:00;;;;;;;10.60;5.67;;;8.30;99.90;;;;;;5084539;22;20503;-72
2022/02/15 07:21:49;;;;;;;7.47;4.13;;;8.30;99.90;;;;;;5081720;28;20467;-72
2022/02/15 07:24:36;;;;;;;11.70;5.27;;;8.30;99.90;;;;;;5090123;28;20583;-72
2022/02/15 07:27:22;;;;;;;8.00;5.40;;;8.30;99.90;;;;;;5084346;28;20975;-73
2022/02/15 07:30:08;;;;;;;8.73;4.80;;;8.30;99.90;;;;;;5075518;28;20459;-73
2022/02/15 07:32:54;;;;;;;26.27;12.43;;;8.30;99.90;;;;;;5070569;28;20454;-73
2022/02/15 07:35:40;;;;;;;21.20;10.30;;;8.30;99.90;;;;;;5079466;28;20453;-73
2022/02/15 07:38:27;;;;;;;17.27;8.63;;;8.30;99.90;;;;;;5074558;28;20442;-73
2022/02/15 07:41:14;;;;;;;13.00;7.47;;;8.20;99.90;;;;;;5081363;28;20450;-73
2022/02/15 07:44:00;;;;;;;11.97;6.10;;;8.30;99.90;;;;;;5073570;28;20492;-72
2022/02/15 07:46:47;;;;;;;7.30;5.10;;;8.30;99.90;;;;;;5069935;28;20459;-72
2022/02/15 07:49:33;;;;;;;6.70;4.80;;;8.30;99.90;;;;;;5062858;28;20473;-72
2022/02/15 07:52:19;;;;;;;11.30;7.23;;;8.30;99.90;;;;;;5069255;28;20763;-73
2022/02/15 07:55:07;;;;;;;10.30;6.30;;;8.30;99.90;;;;;;5078675;28;20935;-73
2022/02/15 07:57:52;;;;;;;9.43;5.13;;;8.30;99.90;;;;;;5075661;28;20442;-73
2022/02/15 08:00:38;;;;;;;6.80;4.37;;;8.40;99.90;;;;;;5068990;28;20909;-73
2022/02/15 08:03:24;;;;;;;24.47;4.90;;;8.30;99.90;;;;;;5076468;28;20912;-73
2022/02/15 08:06:09;;;;;;;16.23;9.20;;;8.30;99.90;;;;;;5069420;28;20805;-72
2022/02/15 08:08:55;;;;;;;9.10;6.10;;;8.30;99.90;;;;;;5066341;28;20464;-73
2022/02/15 08:11:43;;;;;;;11.77;6.43;;;8.30;99.90;;;;;;5076335;28;20440;-73
2022/02/15 08:14:29;;;;;;;10.00;5.83;;;8.30;99.90;;;;;;5078962;28;20429;-72
2022/02/15 08:17:15;;;;;;;9.20;4.60;;;8.30;99.90;;;;;;5071793;28;20446;-71
2022/02/15 08:20:01;;;;;;;5.47;4.47;;;8.30;99.90;;;;;;5071206;28;20761;-73
2022/02/15 08:22:46;;;;;;;10.97;5.70;;;8.30;99.90;;;;;;5074043;28;20515;-73
2022/02/15 08:25:34;;;;;;;5.33;4.67;;;8.30;99.90;;;;;;5085618;28;20424;-73
2022/02/15 08:28:21;;;;;;;14.10;6.17;;;8.20;99.90;;;;;;5077609;28;20960;-73
2022/02/15 08:31:07;;;;;;;9.70;5.00;;;8.20;99.90;;;;;;5076791;28;20919;-73
2022/02/15 08:33:52;;;;;;;8.97;5.20;;;8.10;99.90;;;;;;5075722;28;20424;-73
2022/02/15 08:36:38;;;;;;;6.87;4.90;;;8.10;99.90;;;;;;5082349;28;20415;-73
2022/02/15 08:39:25;;;;;;;6.57;5.23;;;8.10;99.90;;;;;;5074415;28;20443;-72
2022/02/15 08:42:11;;;;;;;8.07;5.97;;;8.20;99.90;;;;;;5080870;28;20473;-73
2022/02/15 08:44:58;;;;;;;6.80;5.30;;;8.10;99.90;;;;;;5076079;28;20452;-73
2022/02/15 08:47:44;;;;;;;8.43;5.70;;;8.10;99.90;;;;;;5075450;28;20442;-74
2022/02/15 08:50:29;;;;;;;15.23;6.47;;;8.10;99.90;;;;;;5074936;28;20468;-73
2022/02/15 08:53:15;;;;;;;10.20;6.70;;;8.20;99.90;;;;;;5084694;28;20784;-73
2022/02/15 08:56:01;;;;;;;8.83;5.60;;;8.20;99.90;;;;;;5082913;28;20781;-73
2022/02/15 08:58:47;;;;;;;7.13;5.80;;;8.20;99.90;;;;;;5070237;28;20878;-73
2022/02/15 09:01:34;;;;;;;12.07;7.23;;;8.20;99.90;;;;;;5073343;28;20429;-73
2022/02/15 09:04:20;;;;;;;10.63;6.90;;;8.20;99.90;;;;;;5087399;28;20476;-73
2022/02/15 09:07:07;;;;;;;9.30;7.20;;;8.20;99.90;;;;;;5072744;28;20434;-73
2022/02/15 09:09:53;;;;;;;9.80;6.93;;;8.20;99.90;;;;;;5075404;28;20597;-73
2022/02/15 09:12:39;;;;;;;7.20;5.83;;;8.30;99.90;;;;;;5079128;28;20430;-73
2022/02/15 09:15:24;;;;;;;10.00;6.93;;;8.30;99.90;;;;;;5082283;28;20427;-73
2022/02/15 09:18:11;;;;;;;16.20;7.67;;;8.40;99.90;;;;;;5073848;28;20952;-72
2022/02/15 09:20:57;;;;;;;13.03;6.57;;;8.40;99.90;;;;;;5067648;28;20938;-72
2022/02/15 09:23:42;;;;;;;8.57;6.50;;;8.40;99.90;;;;;;5070732;28;20464;-71
2022/02/15 09:26:28;;;;;;;9.50;6.40;;;8.30;99.90;;;;;;5063881;28;20450;-72
2022/02/15 09:29:15;;;;;;;10.53;6.30;;;8.40;99.90;;;;;;5066342;28;20465;-71
2022/02/15 09:32:01;;;;;;;7.33;6.43;;;8.40;99.90;;;;;;5062180;28;20441;-71
2022/02/15 09:34:48;;;;;;;19.53;7.60;;;8.30;99.90;;;;;;5064547;28;20791;-71
2022/02/15 09:37:33;;;;;;;7.00;5.77;;;8.30;99.90;;;;;;5059554;28;20953;-71
2022/02/15 09:40:19;;;;;;;9.43;5.73;;;8.30;99.90;;;;;;5067095;28;21048;-71
2022/02/15 09:43:06;;;;;;;10.63;6.83;;;8.40;99.90;;;;;;5066234;28;20441;-71
2022/02/15 09:45:52;;;;;;;9.90;6.50;;;8.50;99.90;;;;;;5064138;28;20404;-71
2022/02/15 09:48:38;;;;;;;8.37;6.20;;;8.50;99.90;;;;;;5066799;28;20461;-70
2022/02/15 09:51:26;;;;;;;9.77;6.53;;;8.60;99.90;;;;;;5064435;28;20449;-71
2022/02/15 09:54:11;;;;;;;8.70;6.23;;;8.60;99.90;;;;;;5069341;28;20950;-71
2022/02/15 09:56:58;;;;;;;8.40;6.50;;;8.60;99.90;;;;;;5064796;28;20437;-71
2022/02/15 09:59:45;;;;;;;10.13;5.80;;;8.70;99.90;;;;;;5065644;28;20575;-71
2022/02/15 10:02:35;;;;;;;10.00;6.77;;;8.60;99.90;;;;;;5061136;28;20450;-70
2022/02/15 10:05:22;;;;;;;17.70;7.43;;;8.60;99.90;;;;;;5063914;28;20453;-71
2022/02/15 10:08:09;;;;;;;10.00;6.97;;;8.60;99.90;;;;;;5062889;28;20535;-71
2022/02/15 10:10:55;;;;;;;9.63;6.00;;;8.60;99.90;;;;;;5070711;28;20461;-71
2022/02/15 10:13:46;;;;;;;21.57;12.03;;;8.70;99.90;;;;;;5065421;28;20518;-71
2022/02/15 10:16:32;;;;;;;18.50;9.63;;;8.80;99.90;;;;;;5064040;28;20850;-71
2022/02/15 10:19:26;;;;;;;12.63;6.63;;;8.90;99.90;;;;;;5067554;28;20596;-71
2022/02/15 10:22:12;;;;;;;9.73;5.40;;;9.00;99.90;;;;;;5065439;28;20789;-71
2022/02/15 10:24:59;;;;;;;7.90;5.07;;;8.90;99.90;;;;;;5066425;28;20476;-70
2022/02/15 10:27:46;;;;;;;7.40;4.73;;;8.90;99.90;;;;;;5067565;28;20814;-71
2022/02/15 10:30:38;;;;;;;7.47;5.43;;;9.00;99.90;;;;;;5070987;28;20445;-71
2022/02/15 10:33:32;;;;;;;8.57;4.50;;;9.00;99.90;;;;;;5068767;28;20441;-71
2022/02/15 10:36:18;;;;;;;6.20;4.13;;;8.90;99.90;;;;;;5060513;28;20445;-71
2022/02/15 10:39:03;;;;;;;15.87;6.03;;;9.00;99.90;;;;;;5065350;28;20607;-71
2022/02/15 10:41:50;;;;;;;6.90;5.23;;;9.10;99.90;;;;;;5065679;28;20465;-71
2022/02/15 10:44:48;;;;;;;6.13;4.43;;;9.20;99.90;;;;;;5058617;28;20943;-70
2022/02/15 10:47:35;;;;;;;12.80;4.70;;;9.30;99.90;;;;;;5064962;28;20937;-72
2022/02/15 10:50:21;;;;;;;6.90;4.30;;;9.30;99.90;;;;;;5064033;28;20552;-72
2022/02/15 10:53:08;;;;;;;8.53;4.07;;;9.40;99.90;;;;;;5067182;28;20795;-73
2022/02/15 10:55:54;;;;;;;4.33;3.37;;;9.60;99.90;;;;;;5060336;28;20444;-72
2022/02/15 10:58:41;;;;;;;13.07;3.40;;;9.80;99.90;;;;;;5058048;28;20440;-72
2022/02/15 11:01:28;;;;;;;4.70;3.20;;;9.80;99.90;;;;;;5063935;28;20517;-72
2022/02/15 11:04:14;;;;;;;5.00;3.33;;;9.80;99.90;;;;;;5065332;28;20461;-72
2022/02/15 11:07:05;;;;;;;3.60;2.57;;;9.80;99.90;;;;;;5064773;28;20500;-72
2022/02/15 11:10:18;;;;;;;3.50;2.40;;;9.80;99.90;;;;;;5070241;28;20478;-72
2022/02/15 11:13:06;;;;;;;5.07;3.50;;;9.70;99.90;;;;;;5065148;28;20508;-72
2022/02/15 11:15:55;;;;;;;6.30;2.50;;;9.70;99.90;;;;;;5075390;28;20611;-72
2022/02/15 11:18:40;;;;;;;5.13;1.60;;;9.60;99.90;;;;;;5069967;28;20483;-72
2022/02/15 11:21:28;;;;;;;3.40;2.17;;;9.50;99.90;;;;;;5071236;28;20437;-73
2022/02/15 11:24:13;;;;;;;4.40;2.50;;;9.40;99.90;;;;;;5071761;28;20497;-72
2022/02/15 11:26:59;;;;;;;8.30;2.90;;;9.40;99.90;;;;;;5071372;28;20545;-72
2022/02/15 11:29:53;;;;;;;6.43;2.83;;;9.30;99.90;;;;;;5073458;28;20560;-72
2022/02/15 11:32:43;;;;;;;5.57;2.50;;;9.30;99.90;;;;;;5077022;28;20422;-72
2022/02/15 11:35:32;;;;;;;4.10;2.90;;;9.30;99.90;;;;;;5073792;28;20450;-73
2022/02/15 11:38:17;;;;;;;3.03;2.10;;;9.30;99.90;;;;;;5071548;28;20457;-72
2022/02/15 11:41:05;;;;;;;3.20;1.87;;;9.40;99.90;;;;;;5072160;28;20440;-72
2022/02/15 11:43:55;;;;;;;5.60;2.47;;;9.40;99.90;;;;;;5074911;28;20448;-72
2022/02/15 11:46:43;;;;;;;2.60;1.70;;;9.50;99.90;;;;;;5075896;28;20438;-72
2022/02/15 11:49:30;;;;;;;3.03;2.00;;;9.50;99.90;;;;;;5070599;28;20964;-72
2022/02/15 11:52:16;;;;;;;2.33;1.57;;;9.50;99.90;;;;;;5072293;28;20458;-72
2022/02/15 11:55:06;;;;;;;2.67;1.30;;;9.50;99.90;;;;;;5072560;28;20538;-72
2022/02/15 11:57:52;;;;;;;6.50;1.90;;;9.50;99.90;;;;;;5073715;28;21220;-71
2022/02/15 12:00:40;;;;;;;1.70;1.20;;;9.40;99.90;;;;;;5075852;28;20488;-71
2022/02/15 12:03:26;;;;;;;2.00;1.23;;;9.30;99.90;;;;;;5072526;28;20833;-72
2022/02/15 12:06:13;;;;;;;3.03;1.30;;;9.20;99.90;;;;;;5074104;28;21146;-72
2022/02/15 12:08:59;;;;;;;4.67;2.27;;;9.20;99.90;;;;;;5070466;28;21108;-72
2022/02/15 12:11:47;;;;;;;2.93;1.60;;;9.10;99.90;;;;;;5075910;28;20580;-72
2022/02/15 12:14:33;;;;;;;2.30;1.50;;;9.20;99.90;;;;;;5070981;28;20496;-72
2022/02/15 12:17:23;;;;;;;2.63;1.00;;;9.20;99.90;;;;;;5072842;28;20575;-72
2022/02/15 12:20:12;;;;;;;2.83;1.40;;;9.20;99.90;;;;;;5073832;28;20484;-72
2022/02/15 12:22:59;;;;;;;3.20;1.67;;;9.10;99.90;;;;;;5072966;28;20444;-72
2022/02/15 12:25:46;;;;;;;4.00;1.30;;;9.10;99.90;;;;;;5074044;28;20584;-72
2022/02/15 12:28:32;;;;;;;2.93;1.30;;;9.10;99.90;;;;;;5070983;28;20832;-72
2022/02/15 12:31:24;;;;;;;3.50;1.40;;;9.10;99.90;;;;;;5074442;28;20966;-73
2022/02/15 12:34:11;;;;;;;1.90;1.20;;;9.10;99.90;;;;;;5071924;28;20879;-72
2022/02/15 12:36:57;;;;;;;4.10;1.97;;;9.20;99.90;;;;;;5073041;28;20781;-71
2022/02/15 12:39:44;;;;;;;2.50;1.37;;;9.30;99.90;;;;;;5074289;28;20469;-72
2022/02/15 12:42:30;;;;;;;2.90;1.80;;;9.30;99.90;;;;;;5073064;28;20486;-72
2022/02/15 12:45:15;;;;;;;2.57;1.60;;;9.40;99.90;;;;;;5072532;28;20476;-73
2022/02/15 12:48:01;;;;;;;2.20;1.60;;;9.50;99.90;;;;;;5071611;28;20450;-70
2022/02/15 12:50:48;;;;;;;2.17;1.40;;;9.80;99.90;;;;;;5072983;28;20416;-71
2022/02/15 12:53:34;;;;;;;3.10;1.80;;;10.30;99.90;;;;;;5073817;28;20527;-70
2022/02/15 12:56:23;;;;;;;2.70;2.00;;;10.70;99.90;;;;;;5078368;28;20439;-70
2022/02/15 12:59:09;;;;;;;3.30;2.17;;;11.00;99.90;;;;;;5068077;28;20811;-72
2022/02/15 13:01:59;;;;;;;3.50;2.00;;;11.10;99.90;;;;;;5063154;28;20417;-72
2022/02/15 13:04:47;;;;;;;4.00;2.30;;;10.90;99.90;;;;;;5064738;28;20441;-72
2022/02/15 13:07:44;;;;;;;2.93;2.33;;;10.70;99.90;;;;;;5059814;28;20497;-72
2022/02/15 13:10:30;;;;;;;5.40;2.17;;;10.50;99.90;;;;;;5065804;28;20448;-72
2022/02/15 13:13:17;;;;;;;3.77;2.30;;;10.30;99.90;;;;;;5068077;28;20578;-72
2022/02/15 13:16:05;;;;;;;5.30;2.83;;;10.20;99.90;;;;;;5066246;28;20508;-72
2022/02/15 13:21:20;;;;;;;3.80;2.43;;;10.00;99.90;;;;;;5069001;28;20468;-71
2022/02/15 13:24:08;;;;;;;3.13;1.70;;;9.80;99.90;;;;;;5069126;28;20424;-71
2022/02/15 13:26:59;;;;;;;2.90;2.20;;;9.70;99.90;;;;;;5064772;28;20465;-70
2022/02/15 13:29:46;;;;;;;2.57;1.50;;;9.50;99.90;;;;;;5066390;28;20447;-71
2022/02/15 13:32:35;;;;;;;4.20;1.33;;;9.50;99.90;;;;;;5069656;28;20986;-71
2022/02/15 13:35:20;;;;;;;3.83;1.27;;;9.50;99.90;;;;;;5071339;28;20491;-71
2022/02/15 13:38:07;;;;;;;4.80;2.10;;;9.40;99.90;;;;;;5066990;28;20423;-71
2022/02/15 13:40:53;;;;;;;1.90;1.27;;;9.20;99.90;;;;;;5065221;28;20476;-71
2022/02/15 13:43:41;;;;;;;2.20;1.80;;;9.20;99.90;;;;;;5064723;28;20453;-71
2022/02/15 13:46:28;;;;;;;5.63;1.67;;;9.10;99.90;;;;;;5063653;28;20856;-71
2022/02/15 13:49:14;;;;;;;5.87;1.50;;;9.10;99.90;;;;;;5069607;28;20473;-71
2022/02/15 13:51:59;;;;;;;5.23;1.73;;;9.10;99.90;;;;;;5069948;28;20580;-71
2022/02/15 13:54:46;;;;;;;3.60;1.80;;;9.10;99.90;;;;;;5067708;28;20970;-72
2022/02/15 13:57:31;;;;;;;2.73;1.40;;;9.20;99.90;;;;;;5061075;28;20922;-71
2022/02/15 14:00:17;;;;;;;2.30;1.43;;;9.30;99.90;;;;;;5064706;28;20445;-71
2022/02/15 14:03:05;;;;;;;3.07;1.50;;;9.40;99.90;;;;;;5066643;28;20448;-72
2022/02/15 14:05:50;;;;;;;2.57;1.57;;;9.40;99.90;;;;;;5064616;28;20449;-71
2022/02/15 14:08:38;;;;;;;3.07;1.83;;;9.70;99.90;;;;;;5062061;28;20445;-72
2022/02/15 14:11:24;;;;;;;3.33;1.60;;;10.00;99.90;;;;;;5064039;28;20526;-71
2022/02/15 14:14:10;;;;;;;2.10;1.50;;;10.40;99.90;;;;;;5064327;28;20481;-70
2022/02/15 14:17:37;;;;;;;2.53;1.60;;;10.80;99.90;;;;;;5062733;28;20442;-71
2022/02/15 14:20:07;;;;;;;5.20;1.67;;;10.90;99.90;;;;;;5072059;28;20485;-71
2022/02/15 14:22:54;;;;;;;4.47;1.87;;;10.90;86.60;;;;;;5080627;28;20937;-71
2022/02/15 14:25:40;;;;;;;2.80;1.70;;;10.80;88.40;;;;;;5087876;28;20477;-70
2022/02/15 14:28:25;;;;;;;4.70;1.77;;;10.60;80.50;;;;;;5084401;28;20766;-71
2022/02/15 14:31:11;;;;;;;4.00;1.57;;;10.60;82.90;;;;;;5088338;28;20543;-71
2022/02/15 14:33:56;;;;;;;4.10;1.50;;;10.60;84.20;;;;;;5091410;28;20532;-72
2022/02/15 14:36:44;;;;;;;2.83;1.17;;;10.70;76.30;;;;;;5084685;28;20562;-71
2022/02/15 14:39:29;;;;;;;4.20;1.60;;;10.70;72.10;;;;;;5090639;28;20445;-71
2022/02/15 14:42:15;;;;;;;3.53;1.47;;;10.50;71.70;;;;;;5091255;28;20479;-71
2022/02/15 14:45:00;;;;;;;4.03;1.33;;;10.30;72.20;;;;;;5086916;28;20433;-71